CST,Max TemperatureF,Mean TemperatureF,Min TemperatureF,Max Dew PointF,MeanDew PointF,Min DewpointF,Max Humidity, Mean Humidity, Min Humidity, Max Sea Level PressureIn, Mean Sea Level PressureIn, Min Sea Level PressureIn, Max VisibilityMiles, Mean VisibilityMiles, Min VisibilityMiles, Max Wind SpeedMPH, Mean Wind SpeedMPH, Max Gust SpeedMPH,PrecipitationIn, CloudCover, Events, WindDirDegrees
2012-12-1,44,37,30,36,32,28,100,89,66,29.96,29.78,29.69,10,4,0,16,11,25,0.00,4,Fog,197
2012-12-2,42,35,28,36,32,27,100,93,76,29.94,29.83,29.65,10,3,0,15,6,21,0.00,4,Fog,130
2012-12-3,48,40,33,45,36,27,100,80,61,29.91,29.66,29.49,10,8,1,23,15,31,0.00,3,,226
2012-12-4,32,23,14,27,14,10,86,69,51,30.37,30.18,29.92,10,10,10,17,10,23,0.00,0,,306
2012-12-5,37,26,14,28,17,10,86,66,51,30.36,30.05,29.75,10,10,10,22,10,29,0.00,1,,129
2012-12-6,41,30,19,32,25,16,93,78,64,29.99,29.85,29.72,10,10,10,20,10,26,0.00,3,Rain,278
2012-12-7,28,24,19,27,22,18,100,91,80,30.04,30.01,29.98,10,7,1,7,3,,0.00,6,Snow,345
2012-12-8,28,24,21,28,22,19,100,89,80,30.02,29.99,29.94,10,7,1,12,4,,0.00,8,Snow,114
2012-12-9,28,17,6,28,20,1,100,90,73,30.01,29.94,29.90,10,2,0,23,14,32,0.01,8,Snow,22
2012-12-10,8,0,-9,3,-5,-13,92,78,66,30.00,29.89,29.77,10,9,2,14,8,20,0.00,3,Snow,257
2012-12-11,12,2,-9,9,1,-13,92,85,73,29.94,29.83,29.74,10,10,5,13,4,,0.00,3,Snow,261
2012-12-12,30,13,-4,25,16,-6,100,85,69,29.94,29.82,29.75,10,9,1,12,5,,0.00,2,,125
2012-12-13,30,19,8,23,18,5,100,86,74,30.10,29.99,29.86,10,8,2,9,4,,0.00,3,Snow,2
2012-12-14,30,16,5,25,15,3,100,88,80,30.09,29.94,29.73,10,6,0,13,4,,0.00,2,Fog,95
2012-12-15,33,32,28,32,31,27,100,98,80,29.72,29.59,29.51,10,4,1,13,8,,0.31,8,Rain-Snow,28
2012-12-16,28,21,14,27,17,10,100,93,86,29.79,29.72,29.60,10,9,2,15,10,17,0.00,8,,323
2012-12-17,21,19,17,19,17,16,100,95,93,29.78,29.71,29.65,10,5,0,7,2,,0.00,8,Fog-Snow,95
2012-12-18,26,24,21,27,22,19,100,96,93,29.76,29.66,29.60,7,3,2,7,4,,0.00,8,Snow,119
2012-12-19,28,20,12,27,16,9,100,88,74,30.02,29.90,29.76,10,8,0,9,4,,0.00,3,Fog,264
2012-12-20,19,12,5,18,12,1,93,86,73,30.12,30.00,29.95,10,9,7,22,12,26,0.00,5,Snow,327
2012-12-21,12,6,0,5,0,-4,92,83,67,30.26,30.19,30.11,10,10,10,10,6,,0.00,0,,321
2012-12-22,23,13,3,14,7,0,92,81,68,30.11,30.02,29.96,10,10,7,14,4,18,0.00,1,Snow,353
2012-12-23,15,10,6,9,7,5,92,81,68,30.12,30.08,30.01,10,10,10,10,6,,0.00,4,,32
2012-12-24,12,4,-5,9,1,-9,85,79,62,30.29,30.13,30.02,10,9,4,16,9,,0.00,3,Snow,337
2012-12-25,3,-3,-9,-4,-8,-13,85,79,66,30.45,30.41,30.29,10,10,10,10,6,,0.00,0,,301
2012-12-26,10,5,0,1,-2,-6,92,80,67,30.38,30.28,30.21,10,9,4,6,1,,0.00,4,Snow,332
2012-12-27,15,8,0,14,7,-4,93,84,73,30.22,30.17,30.12,10,7,2,7,3,,0.00,8,Snow,79
2012-12-28,19,11,3,16,11,1,100,89,79,30.12,30.05,30.01,10,6,0,8,2,,0.00,7,Snow,325
2012-12-29,12,4,-5,9,3,-8,92,86,78,30.11,30.05,30.02,10,7,0,10,5,,0.00,4,Fog-Snow,262
2012-12-30,17,4,-9,12,0,-13,93,84,73,30.12,29.98,29.85,10,10,5,22,3,29,0.00,0,,157
2012-12-31,14,0,-13,9,-4,-17,92,75,61,30.23,30.16,29.99,10,10,4,21,10,26,0.00,1,Snow,306